Time;durP1;ratioP1;P1;durP2;ratioP2;P2;SDS_P1;SDS_P2;PMS_P1;PMS_P2;Temp;Humidity;BMP_temperature;BMP_pressure;BME280_temperature;BME280_humidity;BME280_pressure;Samples;Min_cycle;Max_cycle;Signal;HPM_P1;HPM_P2
2022/04/18 00:01:09;;;;;;;12.93;9.65;;;11.60;79.90;;;;;;5031360;28;20052;-66
2022/04/18 00:03:35;;;;;;;14.40;9.20;;;11.50;80.20;;;;;;5022611;28;20042;-66
2022/04/18 00:06:01;;;;;;;12.55;9.70;;;11.50;80.90;;;;;;5031715;28;20060;-66
2022/04/18 00:08:27;;;;;;;13.85;9.98;;;11.50;80.10;;;;;;5033362;28;20081;-66
2022/04/18 00:10:53;;;;;;;14.52;10.13;;;11.50;80.10;;;;;;5019909;28;20069;-66
2022/04/18 00:13:18;;;;;;;12.77;8.75;;;11.40;80.80;;;;;;5023393;28;20050;-66
2022/04/18 00:15:44;;;;;;;15.50;9.75;;;11.30;81.10;;;;;;5020370;28;20048;-66
2022/04/18 00:18:09;;;;;;;16.20;8.98;;;11.30;81.60;;;;;;5025695;28;20049;-65
2022/04/18 00:20:35;;;;;;;15.43;10.00;;;11.30;80.70;;;;;;5031341;28;20091;-66
2022/04/18 00:23:00;;;;;;;15.48;10.13;;;11.20;81.20;;;;;;5032537;28;20132;-66
2022/04/18 00:25:26;;;;;;;12.38;8.60;;;11.20;82.10;;;;;;5018211;28;20042;-65
2022/04/18 00:27:51;;;;;;;14.95;9.60;;;11.20;80.60;;;;;;5027570;28;20072;-66
2022/04/18 00:30:17;;;;;;;14.30;9.55;;;11.10;81.60;;;;;;5026218;28;20085;-66
2022/04/18 00:32:42;;;;;;;17.92;9.07;;;11.20;81.40;;;;;;5021926;28;20084;-66
2022/04/18 00:35:08;;;;;;;15.27;9.10;;;11.10;81.70;;;;;;5030998;28;20076;-66
2022/04/18 00:37:36;;;;;;;13.02;9.60;;;11.10;81.40;;;;;;5019966;28;20042;-65
2022/04/18 00:40:03;;;;;;;14.48;10.18;;;11.00;81.40;;;;;;5017115;28;20492;-66
2022/04/18 00:42:28;;;;;;;14.73;9.90;;;10.90;81.70;;;;;;5020316;28;20093;-65
2022/04/18 00:44:54;;;;;;;14.13;9.40;;;10.90;81.60;;;;;;5021345;28;20041;-66
2022/04/18 00:47:19;;;;;;;14.60;10.32;;;10.90;81.70;;;;;;5029067;28;20073;-66
2022/04/18 00:49:45;;;;;;;13.80;9.48;;;10.90;81.60;;;;;;5030372;28;20053;-66
2022/04/18 00:52:11;;;;;;;11.90;9.00;;;10.80;81.80;;;;;;5018507;28;20045;-66
2022/04/18 00:54:37;;;;;;;15.55;11.13;;;10.90;81.60;;;;;;5026497;28;20118;-66
2022/04/18 00:57:03;;;;;;;16.20;10.38;;;10.80;81.90;;;;;;5027630;28;20371;-66
2022/04/18 00:59:31;;;;;;;13.40;9.55;;;10.80;82.10;;;;;;5016149;28;20046;-66
2022/04/18 01:01:57;;;;;;;14.43;9.73;;;10.70;81.70;;;;;;5020757;28;20123;-65
2022/04/18 01:04:23;;;;;;;12.13;9.25;;;10.70;82.50;;;;;;5017355;28;20045;-66
2022/04/18 01:06:49;;;;;;;18.02;9.70;;;10.70;82.10;;;;;;5019949;28;20045;-66
2022/04/18 01:09:15;;;;;;;14.80;9.02;;;10.70;82.50;;;;;;5030160;28;20792;-66
2022/04/18 01:11:41;;;;;;;14.40;9.35;;;10.60;82.80;;;;;;5030955;28;20076;-66
2022/04/18 01:14:06;;;;;;;16.00;10.43;;;10.60;83.00;;;;;;5016065;28;20116;-65
2022/04/18 01:16:32;;;;;;;17.52;9.75;;;10.60;82.70;;;;;;5022950;28;20129;-66
2022/04/18 01:18:57;;;;;;;12.70;9.93;;;10.60;82.40;;;;;;5023576;28;20110;-66
2022/04/18 01:21:23;;;;;;;16.88;10.02;;;10.60;82.50;;;;;;5031514;28;20112;-66
2022/04/18 01:23:49;;;;;;;19.08;10.25;;;10.50;82.40;;;;;;5030472;28;20042;-65
2022/04/18 01:28:59;;;;;;;13.15;9.60;;;10.50;82.90;;;;;;5019070;28;20140;-66
2022/04/18 01:31:32;;;;;;;17.55;11.02;;;10.50;82.90;;;;;;5020432;28;20125;-66
2022/04/18 01:33:59;;;;;;;13.25;9.38;;;10.40;83.10;;;;;;5019615;28;20064;-66
2022/04/18 01:36:25;;;;;;;13.63;9.75;;;10.40;82.50;;;;;;5024005;28;20577;-65
2022/04/18 01:38:51;;;;;;;16.45;10.48;;;10.40;82.40;;;;;;5010514;28;20049;-65
2022/04/18 01:41:17;;;;;;;15.52;9.85;;;10.40;82.50;;;;;;5022399;28;20038;-66
2022/04/18 01:43:43;;;;;;;14.80;9.65;;;10.30;82.60;;;;;;5019879;28;20057;-66
2022/04/18 01:46:08;;;;;;;18.02;10.82;;;10.40;82.80;;;;;;5029145;28;20030;-66
2022/04/18 01:48:34;;;;;;;17.80;10.75;;;10.40;82.60;;;;;;5030857;28;20600;-66
2022/04/18 01:51:00;;;;;;;19.00;10.93;;;10.40;82.40;;;;;;5017345;28;20406;-66
2022/04/18 01:53:27;;;;;;;17.65;10.43;;;10.20;83.10;;;;;;5020762;28;20115;-66
2022/04/18 01:55:53;;;;;;;15.23;9.85;;;10.20;82.50;;;;;;5024346;28;20050;-66
2022/04/18 01:58:19;;;;;;;15.00;9.80;;;10.20;83.70;;;;;;5019870;28;20042;-66
2022/04/18 02:00:45;;;;;;;16.98;11.23;;;10.20;83.00;;;;;;5026588;28;20107;-66
2022/04/18 02:03:11;;;;;;;16.55;10.38;;;10.20;83.30;;;;;;5023022;28;20054;-66
2022/04/18 02:05:36;;;;;;;15.82;10.35;;;10.20;82.30;;;;;;5025104;28;20160;-66
2022/04/18 02:08:02;;;;;;;15.98;10.27;;;10.10;83.20;;;;;;5020794;28;20051;-66
2022/04/18 02:10:27;;;;;;;15.65;9.75;;;10.10;83.00;;;;;;5024334;28;20045;-66
2022/04/18 02:12:54;;;;;;;14.05;9.48;;;10.10;83.60;;;;;;5030033;28;20139;-66
2022/04/18 02:15:21;;;;;;;14.40;10.25;;;10.10;83.40;;;;;;5022633;28;20497;-66
2022/04/18 02:17:46;;;;;;;15.30;11.00;;;9.90;84.50;;;;;;5022916;28;20060;-66
2022/04/18 02:20:12;;;;;;;17.00;10.48;;;10.00;83.30;;;;;;5019282;28;20050;-65
2022/04/18 02:22:37;;;;;;;14.23;10.52;;;9.90;84.00;;;;;;5026687;28;20045;-65
2022/04/18 02:25:03;;;;;;;14.43;10.40;;;9.90;83.80;;;;;;5030268;28;20107;-66
2022/04/18 02:27:29;;;;;;;15.88;10.30;;;10.00;84.50;;;;;;5029453;28;20045;-66
2022/04/18 02:29:55;;;;;;;15.65;9.68;;;9.90;85.20;;;;;;5014582;28;20477;-66
2022/04/18 02:35:05;;;;;;;16.13;10.23;;;9.90;84.40;;;;;;5026807;28;20045;-66
2022/04/18 02:37:30;;;;;;;19.13;10.77;;;9.80;84.80;;;;;;5020157;28;20050;-67
2022/04/18 02:39:59;;;;;;;14.75;9.70;;;9.80;84.60;;;;;;5025854;28;20473;-67
2022/04/18 02:42:24;;;;;;;17.58;10.80;;;9.70;85.30;;;;;;5028254;28;20136;-67
2022/04/18 02:44:50;;;;;;;16.77;11.77;;;9.80;84.90;;;;;;5015357;28;20117;-67
2022/04/18 02:47:16;;;;;;;14.05;10.88;;;9.80;84.50;;;;;;5027165;28;20071;-67
2022/04/18 02:49:41;;;;;;;17.10;10.13;;;9.80;84.80;;;;;;5029665;28;20095;-67
2022/04/18 02:52:07;;;;;;;14.68;11.23;;;9.70;85.10;;;;;;5015209;28;20045;-67
2022/04/18 02:54:33;;;;;;;15.65;10.25;;;9.70;85.60;;;;;;5012847;28;20478;-67
2022/04/18 02:56:58;;;;;;;15.50;10.43;;;9.70;85.30;;;;;;5022105;28;20057;-67
2022/04/18 02:59:24;;;;;;;18.02;12.50;;;9.60;85.10;;;;;;5021600;28;20042;-67
2022/04/18 03:01:49;;;;;;;17.35;11.57;;;9.50;85.70;;;;;;5028927;28;20055;-67
2022/04/18 03:04:15;;;;;;;15.60;11.77;;;9.50;86.00;;;;;;5018086;28;20124;-67
2022/04/18 03:06:40;;;;;;;17.42;11.57;;;9.60;86.00;;;;;;5021446;28;20050;-67
2022/04/18 03:09:06;;;;;;;16.00;11.90;;;9.60;86.10;;;;;;5025347;28;20400;-67
2022/04/18 03:11:32;;;;;;;17.92;12.00;;;9.50;85.70;;;;;;5014656;28;20038;-67
2022/04/18 03:13:57;;;;;;;20.05;11.90;;;9.40;86.20;;;;;;5026994;28;20051;-67
2022/04/18 03:16:23;;;;;;;16.92;11.80;;;9.40;86.90;;;;;;5027064;28;20046;-67
2022/04/18 03:18:49;;;;;;;14.43;11.60;;;9.40;86.20;;;;;;5016691;28;20046;-67
2022/04/18 03:21:16;;;;;;;20.48;11.60;;;9.50;86.40;;;;;;5020446;28;20145;-67
2022/04/18 03:23:44;;;;;;;20.77;11.43;;;9.30;86.30;;;;;;5013851;28;20064;-67
2022/04/18 03:26:10;;;;;;;15.57;11.05;;;9.40;87.30;;;;;;5022910;28;20049;-67
2022/04/18 03:28:36;;;;;;;18.55;12.65;;;9.30;86.70;;;;;;5029409;28;20409;-67
2022/04/18 03:31:02;;;;;;;14.57;10.95;;;9.20;87.10;;;;;;5016072;28;20045;-66
2022/04/18 03:33:27;;;;;;;16.00;11.38;;;9.20;87.20;;;;;;5026474;28;20429;-67
2022/04/18 03:41:21;;;;;;;14.88;11.43;;;9.20;86.80;;;;;;5025116;28;20045;-66
2022/04/18 03:43:46;;;;;;;19.88;12.43;;;9.20;86.80;;;;;;5022012;28;20485;-67
2022/04/18 03:46:12;;;;;;;18.80;11.82;;;9.10;87.00;;;;;;5020457;28;20086;-67
2022/04/18 03:48:37;;;;;;;17.42;11.90;;;9.00;87.60;;;;;;5018915;28;20533;-67
2022/04/18 03:51:03;;;;;;;15.40;12.38;;;9.00;87.60;;;;;;5018252;28;20072;-67
2022/04/18 03:53:29;;;;;;;18.02;11.82;;;9.00;87.20;;;;;;5016380;28;20037;-67
2022/04/18 03:55:55;;;;;;;19.35;12.55;;;9.00;87.50;;;;;;5027291;28;20046;-67
2022/04/18 03:58:20;;;;;;;16.35;11.27;;;8.90;87.70;;;;;;5017407;28;20405;-67
2022/04/18 04:00:46;;;;;;;17.67;11.65;;;8.90;87.30;;;;;;5020713;28;20494;-67
2022/04/18 04:03:11;;;;;;;22.27;12.80;;;8.90;87.60;;;;;;5021834;28;20053;-67
2022/04/18 04:05:40;;;;;;;21.40;12.25;;;8.80;87.80;;;;;;5027367;28;21335;-67
2022/04/18 04:08:06;;;;;;;16.00;11.95;;;8.80;87.90;;;;;;5029299;28;20057;-67
2022/04/18 04:10:32;;;;;;;21.30;12.20;;;8.80;88.70;;;;;;5018812;28;20041;-68
2022/04/18 04:12:58;;;;;;;17.45;12.93;;;8.70;88.10;;;;;;5030283;28;20064;-67
2022/04/18 04:15:24;;;;;;;17.05;12.45;;;8.80;88.70;;;;;;5026708;28;20044;-67
2022/04/18 04:17:49;;;;;;;24.60;12.65;;;8.70;88.60;;;;;;5018725;28;20159;-68
2022/04/18 04:20:15;;;;;;;24.05;14.05;;;8.60;90.00;;;;;;5025053;28;20038;-68
2022/04/18 04:22:45;;;;;;;17.75;12.48;;;8.70;88.30;;;;;;5032244;28;20075;-68
2022/04/18 04:25:10;;;;;;;20.40;13.55;;;8.70;88.10;;;;;;5018324;28;20045;-68
2022/04/18 04:27:36;;;;;;;17.98;13.00;;;8.60;87.90;;;;;;5018836;28;20091;-67
2022/04/18 04:30:01;;;;;;;17.88;12.95;;;8.50;90.00;;;;;;5031431;28;20041;-68
2022/04/18 04:32:27;;;;;;;17.88;12.80;;;8.50;88.30;;;;;;5020454;28;20044;-68
2022/04/18 04:34:52;;;;;;;21.25;13.73;;;8.50;88.10;;;;;;5023452;28;20042;-68
2022/04/18 04:37:18;;;;;;;19.05;14.05;;;8.50;90.20;;;;;;5027557;28;20038;-68
2022/04/18 04:39:44;;;;;;;20.05;13.60;;;8.40;89.10;;;;;;5026942;28;20045;-68
2022/04/18 04:42:10;;;;;;;19.45;13.13;;;8.30;88.40;;;;;;5030842;28;20055;-68
2022/04/18 04:44:36;;;;;;;19.30;13.02;;;8.50;88.70;;;;;;5028051;28;20037;-68
2022/04/18 04:47:01;;;;;;;21.38;14.15;;;8.40;88.60;;;;;;5015356;28;20107;-68
2022/04/18 04:49:27;;;;;;;20.42;13.05;;;8.40;88.40;;;;;;5023575;28;20107;-68
2022/04/18 04:51:52;;;;;;;19.73;12.65;;;8.40;88.80;;;;;;5032106;28;20045;-68
2022/04/18 04:54:18;;;;;;;23.52;12.95;;;8.40;88.50;;;;;;5020250;28;20152;-68
2022/04/18 04:56:43;;;;;;;22.52;13.35;;;8.40;89.10;;;;;;5026766;28;20045;-68
2022/04/18 04:59:09;;;;;;;20.08;13.45;;;8.40;87.80;;;;;;5029971;28;20081;-68
2022/04/18 05:01:35;;;;;;;19.30;13.13;;;8.40;88.80;;;;;;5016838;28;20060;-68
2022/04/18 05:04:01;;;;;;;18.70;13.85;;;8.40;88.80;;;;;;5030912;28;20083;-68
2022/04/18 05:06:26;;;;;;;23.20;13.88;;;8.30;89.10;;;;;;5031869;28;20085;-68
2022/04/18 05:08:52;;;;;;;19.80;13.18;;;8.40;88.60;;;;;;5017726;28;20084;-68
2022/04/18 05:11:17;;;;;;;21.08;14.48;;;8.30;89.00;;;;;;5021771;28;20401;-68
2022/04/18 05:13:43;;;;;;;25.15;14.20;;;8.40;88.90;;;;;;5027826;28;20049;-68
2022/04/18 05:16:09;;;;;;;20.50;13.63;;;8.40;88.80;;;;;;5015261;28;20100;-68
2022/04/18 05:18:34;;;;;;;22.75;13.63;;;8.40;89.60;;;;;;5019278;28;20076;-68
2022/04/18 05:21:00;;;;;;;19.90;14.52;;;8.50;89.30;;;;;;5031052;28;20055;-68
2022/04/18 05:23:25;;;;;;;19.98;13.85;;;8.60;89.40;;;;;;5021189;28;20053;-68
2022/04/18 05:25:51;;;;;;;19.70;14.43;;;8.60;88.90;;;;;;5020264;28;20049;-68
2022/04/18 05:28:16;;;;;;;18.30;12.63;;;8.50;89.10;;;;;;5030188;28;20131;-68
2022/04/18 05:30:42;;;;;;;21.70;13.20;;;8.50;89.40;;;;;;5030476;28;20041;-68
2022/04/18 05:33:08;;;;;;;21.40;13.43;;;8.60;89.20;;;;;;5023945;28;20474;-68
2022/04/18 05:35:33;;;;;;;20.45;13.85;;;8.70;88.90;;;;;;5024057;28;20042;-68
2022/04/18 05:37:59;;;;;;;17.98;12.63;;;8.60;88.60;;;;;;5023163;28;20512;-68
2022/04/18 05:40:25;;;;;;;19.00;13.20;;;8.60;88.90;;;;;;5028993;28;20053;-68
2022/04/18 05:42:51;;;;;;;19.45;13.25;;;8.60;88.40;;;;;;5025330;28;20046;-68
2022/04/18 05:45:17;;;;;;;18.95;13.18;;;8.60;89.00;;;;;;5025664;28;20501;-68
2022/04/18 05:47:42;;;;;;;18.50;13.38;;;8.70;88.80;;;;;;5019492;28;20060;-68
2022/04/18 05:50:08;;;;;;;16.90;11.95;;;8.70;88.70;;;;;;5025591;28;20046;-68
2022/04/18 05:52:34;;;;;;;21.70;13.27;;;8.80;88.40;;;;;;5016009;28;20499;-68
2022/04/18 05:55:00;;;;;;;26.95;15.52;;;8.90;87.80;;;;;;5028939;28;20057;-68
2022/04/18 05:57:25;;;;;;;18.30;11.65;;;8.90;88.20;;;;;;5028980;28;20072;-68
2022/04/18 05:59:51;;;;;;;20.23;13.35;;;8.90;87.70;;;;;;5018615;28;20045;-68
2022/04/18 06:02:16;;;;;;;20.20;13.10;;;8.90;87.60;;;;;;5022701;28;20484;-68
2022/04/18 06:04:42;;;;;;;20.92;12.88;;;8.90;87.10;;;;;;5025062;28;20386;-68
2022/04/18 06:07:07;;;;;;;18.80;13.77;;;9.00;86.70;;;;;;5014130;28;20141;-68
2022/04/18 06:09:33;;;;;;;22.08;13.48;;;9.00;87.20;;;;;;5026747;28;20040;-68
2022/04/18 06:11:58;;;;;;;19.25;13.57;;;9.10;87.20;;;;;;5027881;28;20107;-68
2022/04/18 06:14:24;;;;;;;20.77;13.23;;;9.10;87.60;;;;;;5016938;28;20053;-68
2022/04/18 06:16:50;;;;;;;18.23;12.45;;;9.00;88.20;;;;;;5025232;28;20038;-68
2022/04/18 06:19:15;;;;;;;20.95;13.43;;;9.20;89.00;;;;;;5029070;28;20045;-68
2022/04/18 06:21:41;;;;;;;21.33;13.77;;;9.20;88.50;;;;;;5021795;28;20041;-68
2022/04/18 06:24:06;;;;;;;18.83;12.52;;;9.30;88.40;;;;;;5019708;28;20046;-68
2022/04/18 06:26:32;;;;;;;21.70;13.90;;;9.30;87.90;;;;;;5016895;28;20042;-68
2022/04/18 06:28:58;;;;;;;21.67;14.13;;;9.30;87.70;;;;;;5018398;28;20069;-68
2022/04/18 06:31:24;;;;;;;18.63;13.23;;;9.40;88.30;;;;;;5023182;28;20081;-68
2022/04/18 06:33:50;;;;;;;19.65;14.13;;;9.50;88.40;;;;;;5029817;28;20041;-68
2022/04/18 06:36:16;;;;;;;24.70;14.27;;;9.50;88.60;;;;;;5020231;28;20480;-68
2022/04/18 06:38:41;;;;;;;19.65;13.95;;;9.50;89.20;;;;;;5026022;28;20064;-68
2022/04/18 06:41:08;;;;;;;20.17;14.05;;;9.60;89.40;;;;;;5029094;28;20053;-68
2022/04/18 06:43:34;;;;;;;24.77;14.27;;;9.70;89.50;;;;;;5016093;28;20045;-68
2022/04/18 06:45:59;;;;;;;22.17;13.38;;;9.70;89.20;;;;;;5022987;28;20045;-68
2022/04/18 06:48:25;;;;;;;21.38;14.10;;;9.90;89.40;;;;;;5028286;28;20500;-68
2022/04/18 06:50:50;;;;;;;18.73;13.48;;;9.90;89.30;;;;;;5030014;28;20048;-68
2022/04/18 06:53:16;;;;;;;24.60;13.13;;;9.90;89.40;;;;;;5017492;28;20060;-68
2022/04/18 06:58:26;;;;;;;20.42;13.80;;;10.20;88.90;;;;;;5018295;28;20053;-67
2022/04/18 07:00:52;;;;;;;17.70;13.23;;;10.20;89.40;;;;;;5019925;28;20734;-67
2022/04/18 07:03:17;;;;;;;21.58;14.75;;;10.20;88.50;;;;;;5030143;28;20046;-67
2022/04/18 07:05:43;;;;;;;17.48;11.77;;;10.30;89.30;;;;;;5021557;28;20339;-67
2022/04/18 07:08:09;;;;;;;24.85;14.68;;;10.40;89.00;;;;;;5014859;28;20050;-67
2022/04/18 07:10:35;;;;;;;19.63;12.98;;;10.40;88.70;;;;;;5020501;28;20041;-67
2022/04/18 07:13:00;;;;;;;20.52;13.98;;;10.50;88.60;;;;;;5021239;28;20405;-67
2022/04/18 07:15:26;;;;;;;18.17;13.02;;;10.60;89.30;;;;;;5026020;28;20379;-67
2022/04/18 07:17:52;;;;;;;20.63;12.65;;;10.70;89.90;;;;;;5025487;28;20474;-67
2022/04/18 07:20:17;;;;;;;21.65;14.02;;;10.80;90.40;;;;;;5024405;28;20133;-67
2022/04/18 07:22:43;;;;;;;19.45;12.82;;;10.90;89.50;;;;;;5027870;28;20048;-67
2022/04/18 07:25:09;;;;;;;19.80;13.43;;;10.90;89.40;;;;;;5032594;28;20040;-67
2022/04/18 07:27:35;;;;;;;18.63;11.77;;;11.00;90.40;;;;;;5028431;28;20057;-67
2022/04/18 07:30:00;;;;;;;17.52;11.95;;;11.10;90.20;;;;;;5028899;28;20076;-67
2022/04/18 07:32:26;;;;;;;21.80;12.00;;;11.10;89.90;;;;;;5027700;28;20037;-67
2022/04/18 07:34:53;;;;;;;18.95;13.20;;;11.20;89.30;;;;;;5027586;28;20041;-66
2022/04/18 07:37:19;;;;;;;16.15;12.30;;;11.40;90.00;;;;;;5017479;28;20061;-67
2022/04/18 07:39:44;;;;;;;16.38;11.65;;;11.50;88.60;;;;;;5029949;28;20037;-67
2022/04/18 07:42:10;;;;;;;17.17;11.70;;;11.50;88.60;;;;;;5019063;28;20185;-67
2022/04/18 07:44:36;;;;;;;16.65;11.50;;;11.60;88.00;;;;;;5032731;28;20124;-67
2022/04/18 07:47:01;;;;;;;17.45;12.18;;;11.60;88.70;;;;;;5019326;28;20121;-67
2022/04/18 07:49:27;;;;;;;13.48;10.57;;;11.80;89.60;;;;;;5026400;28;20050;-67
2022/04/18 07:51:54;;;;;;;14.15;10.43;;;11.80;90.00;;;;;;5018207;28;20059;-67
2022/04/18 07:54:20;;;;;;;17.92;11.75;;;12.00;90.30;;;;;;5032238;28;20069;-67
2022/04/18 07:56:46;;;;;;;14.90;10.20;;;12.10;90.40;;;;;;5031949;28;20468;-67
2022/04/18 07:59:12;;;;;;;18.38;12.02;;;12.20;90.20;;;;;;5024227;28;20118;-67
2022/04/18 08:01:38;;;;;;;17.90;10.95;;;12.30;90.00;;;;;;5029364;28;20078;-67
2022/04/18 08:04:04;;;;;;;16.40;10.68;;;12.40;88.80;;;;;;5032320;28;20084;-67
2022/04/18 08:06:31;;;;;;;14.73;9.57;;;12.40;89.20;;;;;;5030918;28;20504;-67
2022/04/18 08:08:57;;;;;;;15.20;10.68;;;12.50;89.40;;;;;;5022387;28;20053;-67
2022/04/18 08:11:23;;;;;;;15.68;10.88;;;12.60;88.60;;;;;;5030640;28;20073;-67
2022/04/18 08:13:50;;;;;;;16.30;10.95;;;12.50;89.20;;;;;;5019214;28;20084;-67
2022/04/18 08:16:16;;;;;;;15.30;10.70;;;12.60;89.10;;;;;;5026138;28;20061;-66
2022/04/18 08:18:44;;;;;;;16.80;10.60;;;12.80;89.60;;;;;;5031821;28;20045;-67
2022/04/18 08:21:11;;;;;;;17.13;11.05;;;13.00;90.20;;;;;;5030188;28;20045;-67
2022/04/18 08:23:37;;;;;;;14.23;10.30;;;13.00;88.80;;;;;;5025112;28;20519;-67
2022/04/18 08:26:03;;;;;;;17.80;10.88;;;13.10;88.80;;;;;;5030596;28;20041;-67
2022/04/18 08:28:29;;;;;;;20.30;9.95;;;13.20;88.60;;;;;;5027210;28;20049;-66
2022/04/18 08:30:55;;;;;;;12.85;9.57;;;13.30;88.50;;;;;;5028537;28;20877;-67
2022/04/18 08:33:21;;;;;;;15.45;10.38;;;13.50;89.10;;;;;;5024507;28;20041;-67
2022/04/18 08:35:46;;;;;;;16.52;9.45;;;13.70;88.40;;;;;;5017038;28;20045;-67
2022/04/18 08:38:12;;;;;;;16.83;10.07;;;14.30;88.00;;;;;;5026868;28;20080;-67
2022/04/18 08:40:40;;;;;;;14.38;9.40;;;15.30;85.30;;;;;;5024534;28;20397;-67
2022/04/18 08:43:06;;;;;;;14.90;9.50;;;16.10;83.10;;;;;;5027731;28;20535;-67
2022/04/18 08:45:31;;;;;;;13.15;9.18;;;16.80;82.90;;;;;;5020980;28;20081;-67
2022/04/18 08:53:31;;;;;;;11.07;8.23;;;18.30;79.70;;;;;;5021093;28;20052;-67
2022/04/18 08:55:59;;;;;;;12.93;8.65;;;18.70;78.10;;;;;;5023386;28;20046;-67
2022/04/18 08:58:28;;;;;;;13.48;8.65;;;18.90;76.10;;;;;;5031880;28;20041;-67
2022/04/18 09:00:55;;;;;;;15.73;9.10;;;18.90;74.30;;;;;;5026568;28;20394;-67
2022/04/18 09:03:22;;;;;;;9.88;7.03;;;19.20;74.00;;;;;;5023593;28;20124;-67
2022/04/18 09:05:47;;;;;;;13.18;8.65;;;19.60;73.10;;;;;;5030410;28;20092;-67
2022/04/18 09:08:13;;;;;;;9.88;7.55;;;19.80;72.70;;;;;;5013826;28;20551;-67
2022/04/18 09:10:41;;;;;;;11.20;7.97;;;20.10;72.40;;;;;;5024444;28;20847;-67
2022/04/18 09:13:09;;;;;;;12.52;7.43;;;20.20;72.60;;;;;;5021777;28;20477;-67
2022/04/18 09:15:39;;;;;;;11.57;7.55;;;20.00;70.40;;;;;;5026084;28;20037;-67
2022/04/18 09:18:15;;;;;;;10.48;7.38;;;20.30;70.70;;;;;;5025858;28;20079;-65
2022/04/18 09:20:48;;;;;;;10.75;6.85;;;20.50;70.60;;;;;;5014794;28;20102;-64
2022/04/18 09:23:29;;;;;;;9.73;8.10;;;20.60;68.90;;;;;;5016063;28;20050;-64
2022/04/18 09:26:00;;;;;;;11.75;7.93;;;20.80;69.50;;;;;;5018991;28;20042;-64
2022/04/18 09:28:28;;;;;;;11.70;7.65;;;20.70;70.30;;;;;;5016640;28;20045;-68
2022/04/18 09:31:09;;;;;;;12.32;7.70;;;20.90;69.60;;;;;;5017230;28;20385;-67
2022/04/18 09:33:38;;;;;;;11.30;7.63;;;20.80;69.90;;;;;;5022384;28;20045;-68
2022/04/18 09:36:07;;;;;;;15.13;7.40;;;21.00;68.20;;;;;;5026820;28;20046;-67
2022/04/18 09:38:40;;;;;;;13.40;7.35;;;21.10;68.40;;;;;;5025824;28;20046;-67
2022/04/18 09:41:06;;;;;;;9.87;6.70;;;21.50;68.30;;;;;;5031437;28;20052;-68
2022/04/18 09:43:45;;;;;;;11.30;6.55;;;21.40;68.80;;;;;;5027628;28;20133;-68
2022/04/18 09:46:12;;;;;;;9.60;6.32;;;21.60;69.00;;;;;;5012984;28;20045;-68
2022/04/18 09:48:39;;;;;;;8.77;6.10;;;21.80;67.00;;;;;;5028742;28;20047;-68
2022/04/18 09:51:11;;;;;;;10.80;6.65;;;21.50;67.60;;;;;;5018992;28;20116;-67
2022/04/18 09:53:38;;;;;;;9.55;6.03;;;21.40;66.70;;;;;;5028099;28;20038;-67
2022/04/18 09:56:04;;;;;;;10.57;6.70;;;21.40;66.90;;;;;;5030294;28;20536;-68
2022/04/18 09:58:32;;;;;;;11.10;6.32;;;21.40;67.10;;;;;;5018158;28;20033;-68
2022/04/18 10:01:02;;;;;;;19.77;5.60;;;21.40;67.90;;;;;;5023352;28;20038;-68
2022/04/18 10:03:27;;;;;;;9.38;6.68;;;21.80;68.20;;;;;;5019383;28;20500;-67
2022/04/18 10:05:54;;;;;;;11.43;6.25;;;21.70;66.30;;;;;;5026446;28;20281;-68
2022/04/18 10:08:20;;;;;;;10.55;5.22;;;21.70;65.90;;;;;;5015986;28;20084;-67
2022/04/18 10:10:46;;;;;;;10.38;5.72;;;21.70;68.80;;;;;;5029263;28;20049;-68
2022/04/18 10:13:12;;;;;;;9.80;5.75;;;22.10;66.50;;;;;;5029374;28;20489;-67
2022/04/18 10:15:41;;;;;;;7.82;5.28;;;21.80;65.00;;;;;;5016215;28;20053;-68
2022/04/18 10:18:10;;;;;;;7.35;5.13;;;21.80;65.60;;;;;;5014801;28;20045;-68
2022/04/18 10:21:04;;;;;;;7.68;5.55;;;22.00;66.80;;;;;;5029705;28;20038;-67
2022/04/18 10:24:07;;;;;;;8.90;6.15;;;21.80;66.60;;;;;;5012611;28;20389;-67
2022/04/18 10:27:10;;;;;;;6.35;4.88;;;21.40;63.30;;;;;;5018865;28;20049;-68
2022/04/18 10:29:48;;;;;;;8.38;5.68;;;21.20;66.80;;;;;;5030229;28;20045;-67
2022/04/18 10:32:20;;;;;;;7.20;4.53;;;21.20;67.20;;;;;;5013855;28;20045;-67
2022/04/18 10:34:50;;;;;;;8.05;5.45;;;20.90;64.80;;;;;;5023312;28;20077;-68
2022/04/18 10:37:16;;;;;;;11.88;5.55;;;20.80;66.60;;;;;;5030255;28;20072;-68
2022/04/18 10:39:41;;;;;;;7.53;5.05;;;20.70;67.50;;;;;;5013138;28;20045;-68
2022/04/18 10:42:21;;;;;;;7.55;4.90;;;20.60;66.20;;;;;;5016724;28;20041;-68
2022/04/18 10:45:16;;;;;;;10.05;5.15;;;20.60;66.80;;;;;;5022913;28;20378;-68
2022/04/18 10:48:03;;;;;;;7.65;4.70;;;20.60;67.50;;;;;;5028567;28;20064;-68
2022/04/18 10:50:37;;;;;;;11.27;5.15;;;20.40;65.30;;;;;;5020558;28;20041;-68
2022/04/18 10:53:14;;;;;;;9.50;5.40;;;20.50;67.10;;;;;;5033654;28;20069;-68
2022/04/18 10:55:52;;;;;;;7.70;4.53;;;20.90;69.20;;;;;;5013521;28;20061;-68
2022/04/18 10:58:21;;;;;;;5.78;4.25;;;21.00;67.20;;;;;;5028655;28;20424;-67
2022/04/18 11:00:52;;;;;;;6.75;4.55;;;21.10;66.70;;;;;;5028354;28;20611;-68
2022/04/18 11:03:57;;;;;;;5.68;4.47;;;21.30;64.70;;;;;;5020407;28;20124;-68
2022/04/18 11:06:37;;;;;;;5.45;3.85;;;21.30;65.50;;;;;;5023175;28;20050;-68
2022/04/18 11:09:38;;;;;;;6.28;3.42;;;21.40;66.60;;;;;;5026099;28;20059;-67
2022/04/18 11:12:06;;;;;;;5.55;4.57;;;21.50;65.30;;;;;;5038031;28;20053;-67
2022/04/18 11:14:37;;;;;;;8.27;4.78;;;21.60;64.60;;;;;;5021158;28;20041;-68
2022/04/18 11:17:05;;;;;;;7.00;4.45;;;21.70;65.50;;;;;;5021733;28;20049;-67
2022/04/18 11:19:41;;;;;;;5.30;3.65;;;21.80;64.30;;;;;;5027410;28;20132;-67
2022/04/18 11:22:14;;;;;;;6.80;4.30;;;21.70;63.10;;;;;;5024169;28;20064;-67
2022/04/18 11:24:42;;;;;;;6.93;4.35;;;21.90;65.90;;;;;;5019017;28;20049;-68
2022/04/18 11:27:15;;;;;;;5.15;3.08;;;21.90;64.50;;;;;;5017131;28;20057;-68
2022/04/18 11:29:45;;;;;;;4.13;3.33;;;22.00;61.00;;;;;;5022474;28;20060;-68
2022/04/18 11:32:16;;;;;;;12.77;4.28;;;21.90;63.10;;;;;;5019491;28;20120;-68
2022/04/18 11:34:44;;;;;;;4.45;3.65;;;22.30;64.90;;;;;;5023154;28;20201;-68
2022/04/18 11:37:12;;;;;;;5.65;4.03;;;22.30;62.30;;;;;;5024324;28;20482;-68
2022/04/18 11:39:49;;;;;;;3.70;2.88;;;22.30;62.50;;;;;;5018160;28;20045;-68
2022/04/18 11:42:25;;;;;;;4.45;3.42;;;22.50;63.60;;;;;;5016646;28;20492;-68
2022/04/18 11:44:55;;;;;;;7.18;4.65;;;22.70;62.60;;;;;;5019931;28;20481;-68
2022/04/18 11:47:27;;;;;;;5.50;3.50;;;22.60;63.40;;;;;;5016911;28;20042;-69
2022/04/18 11:50:01;;;;;;;5.20;3.78;;;22.70;65.00;;;;;;5020518;28;20053;-69
2022/04/18 11:52:35;;;;;;;5.30;3.35;;;23.00;64.30;;;;;;5019214;28;20041;-69
2022/04/18 11:55:21;;;;;;;4.78;2.97;;;23.10;62.00;;;;;;5026544;28;20085;-68
2022/04/18 11:57:48;;;;;;;5.50;3.17;;;23.20;62.10;;;;;;5013197;28;20057;-69
2022/04/18 12:06:44;;;;;;;4.90;3.08;;;23.20;58.70;;;;;;5008126;28;20045;-68
2022/04/18 12:08:36;;;;;;;5.57;3.10;;;23.00;60.40;;;;;;5018246;28;20056;-69
2022/04/18 12:11:02;;;;;;;6.45;3.42;;;23.30;60.20;;;;;;5027493;28;20049;-68
2022/04/18 12:13:28;;;;;;;4.15;2.72;;;23.00;60.00;;;;;;5021120;28;20038;-68
2022/04/18 12:15:53;;;;;;;7.18;2.42;;;23.10;59.70;;;;;;5026365;28;20076;-69
2022/04/18 12:18:20;;;;;;;11.30;2.38;;;22.90;57.30;;;;;;5032796;28;20370;-68
2022/04/18 12:20:47;;;;;;;4.78;2.42;;;22.90;56.20;;;;;;5022819;28;20368;-68
2022/04/18 12:23:24;;;;;;;3.40;2.97;;;22.80;56.40;;;;;;5023439;28;20073;-68
2022/04/18 12:25:51;;;;;;;5.38;2.30;;;22.90;58.50;;;;;;5027183;28;20050;-68
2022/04/18 12:28:21;;;;;;;3.90;2.60;;;23.40;58.70;;;;;;5019611;28;20049;-68
2022/04/18 12:30:47;;;;;;;6.07;2.50;;;23.40;57.70;;;;;;5020205;28;20482;-68
2022/04/18 12:33:19;;;;;;;4.07;2.15;;;23.20;55.90;;;;;;5021060;28;20567;-69
2022/04/18 12:35:46;;;;;;;5.47;2.35;;;23.60;58.60;;;;;;5018112;28;20041;-69
2022/04/18 12:38:13;;;;;;;4.55;2.60;;;23.70;56.70;;;;;;5026819;28;20045;-68
2022/04/18 12:40:43;;;;;;;5.53;2.17;;;23.50;55.20;;;;;;5020349;28;20080;-67
2022/04/18 12:43:11;;;;;;;5.03;3.33;;;23.50;56.00;;;;;;5023032;28;20041;-66
2022/04/18 12:45:48;;;;;;;4.03;2.83;;;23.60;59.40;;;;;;5021563;28;20049;-66
2022/04/18 12:48:14;;;;;;;4.65;2.72;;;23.70;57.80;;;;;;5027151;28;20224;-67
2022/04/18 12:50:40;;;;;;;4.10;2.83;;;23.90;57.70;;;;;;5016837;28;20050;-66
2022/04/18 12:53:06;;;;;;;5.68;2.90;;;24.00;58.00;;;;;;5027286;28;20037;-68
2022/04/18 12:55:31;;;;;;;7.03;2.65;;;24.00;57.10;;;;;;5031581;28;20118;-68
2022/04/18 12:57:58;;;;;;;3.78;2.85;;;24.20;56.90;;;;;;5021114;28;20042;-68
2022/04/18 13:00:32;;;;;;;7.05;2.45;;;24.00;56.00;;;;;;5020207;28;20046;-68
2022/04/18 13:03:03;;;;;;;4.00;2.92;;;24.30;57.20;;;;;;5024617;28;20120;-68
2022/04/18 13:05:31;;;;;;;5.28;2.47;;;24.10;55.50;;;;;;5030339;28;20059;-68